Time;durP1;ratioP1;P1;durP2;ratioP2;P2;SDS_P1;SDS_P2;PMS_P1;PMS_P2;Temp;Humidity;BMP_temperature;BMP_pressure;BME280_temperature;BME280_humidity;BME280_pressure;Samples;Min_cycle;Max_cycle;Signal;HPM_P1;HPM_P2
2021/01/19 00:00:32;;;;;;;3.53;2.22;;;;;;;27.16;26.51;97177.22;5029498;28;20391;-32
2021/01/19 00:02:57;;;;;;;4.60;2.25;;;;;;;27.17;26.32;97168.41;5027097;28;20744;-33
2021/01/19 00:05:23;;;;;;;6.20;2.58;;;;;;;27.14;26.12;97172.03;5033422;28;20047;-32
2021/01/19 00:07:48;;;;;;;3.65;1.90;;;;;;;27.16;26.77;97178.09;5026134;28;20540;-32
2021/01/19 00:10:13;;;;;;;3.95;2.10;;;;;;;27.15;26.52;97175.53;5020990;28;20493;-30
2021/01/19 00:12:39;;;;;;;4.55;2.28;;;;;;;27.15;26.17;97170.28;5032242;28;20040;-33
2021/01/19 00:15:07;;;;;;;5.07;2.10;;;;;;;27.17;26.18;97168.41;5020722;28;20046;-32
2021/01/19 00:17:33;;;;;;;4.22;2.28;;;;;;;27.18;26.63;97164.81;5037630;28;20578;-31
2021/01/19 00:19:59;;;;;;;3.88;2.13;;;;;;;27.17;26.58;97152.59;5042180;28;20037;-32
2021/01/19 00:22:24;;;;;;;6.15;2.30;;;;;;;27.16;26.23;97156.19;5037948;28;20051;-32
2021/01/19 00:24:49;;;;;;;4.25;2.05;;;;;;;27.15;26.23;97163.22;5031920;28;20048;-33
2021/01/19 00:27:15;;;;;;;2.90;2.00;;;;;;;27.16;26.39;97166.69;5025113;28;20041;-28
2021/01/19 00:29:42;;;;;;;5.93;2.05;;;;;;;27.17;26.25;97152.59;5034765;28;20037;-32
2021/01/19 00:32:08;;;;;;;5.20;2.20;;;;;;;27.17;26.27;97149.97;5030071;28;20609;-32
2021/01/19 00:34:33;;;;;;;2.90;2.10;;;;;;;27.17;26.42;97163.13;5031140;28;20479;-31
2021/01/19 00:36:58;;;;;;;3.75;2.05;;;;;;;27.17;26.25;97160.50;5029005;28;20045;-30
2021/01/19 00:39:24;;;;;;;3.88;2.13;;;;;;;27.16;26.75;97150.91;5028022;28;20095;-32
2021/01/19 00:41:50;;;;;;;4.10;2.30;;;;;;;27.17;26.59;97147.34;5027296;28;20044;-32
2021/01/19 00:44:15;;;;;;;3.75;1.80;;;;;;;27.16;26.71;97161.44;5027003;28;20388;-33
2021/01/19 00:46:41;;;;;;;4.90;2.10;;;;;;;27.16;26.41;97145.66;5038656;28;20081;-30
2021/01/19 00:49:06;;;;;;;4.13;2.05;;;;;;;27.15;26.15;97142.16;5034888;28;20554;-32
2021/01/19 00:51:35;;;;;;;3.38;1.95;;;;;;;27.16;26.59;97127.25;5043428;28;20057;-34
2021/01/19 00:54:04;;;;;;;4.68;2.10;;;;;;;27.17;26.79;97121.03;5041170;28;20036;-32
2021/01/19 00:56:39;;;;;;;4.43;2.00;;;;;;;27.16;26.22;97119.34;5028840;28;20272;-33
2021/01/19 00:59:04;;;;;;;4.43;1.88;;;;;;;27.15;26.39;97117.66;5030284;28;20041;-33
2021/01/19 01:01:30;;;;;;;3.25;1.73;;;;;;;27.15;26.26;97117.66;5018181;28;20102;-29
2021/01/19 01:03:56;;;;;;;3.22;1.60;;;;;;;27.15;26.21;97123.75;5039763;28;20041;-32
2021/01/19 01:06:22;;;;;;;3.38;1.80;;;;;;;27.15;26.77;97117.66;5034910;28;20041;-32
2021/01/19 01:08:48;;;;;;;3.00;1.60;;;;;;;27.13;26.38;97121.22;5023954;28;20110;-33
2021/01/19 01:11:13;;;;;;;2.65;1.60;;;;;;;27.12;26.67;97119.50;5030900;28;20028;-32
2021/01/19 01:13:39;;;;;;;3.08;1.80;;;;;;;27.13;26.42;97120.38;5036060;28;20065;-33
2021/01/19 01:16:14;;;;;;;4.63;1.80;;;;;;;27.13;26.61;97121.22;5024063;28;20045;-33
2021/01/19 01:18:39;;;;;;;3.03;1.67;;;;;;;27.13;26.30;97125.63;5036262;28;20057;-33
2021/01/19 01:21:05;;;;;;;2.45;1.40;;;;;;;27.12;26.49;97130.03;5031105;28;20042;-31
2021/01/19 01:23:30;;;;;;;4.38;1.83;;;;;;;27.12;26.24;97122.13;5019194;28;20132;-32
2021/01/19 01:25:56;;;;;;;4.60;1.77;;;;;;;27.13;26.49;97126.50;5023789;28;20042;-32
2021/01/19 01:28:22;;;;;;;3.33;1.90;;;;;;;27.12;26.43;97123.94;5024231;28;20587;-29
2021/01/19 01:30:47;;;;;;;3.33;1.38;;;;;;;27.12;26.47;97122.13;5038667;28;20029;-30
2021/01/19 01:33:13;;;;;;;1.90;1.20;;;;;;;27.12;26.38;97122.13;5035366;28;20502;-32
2021/01/19 01:35:39;;;;;;;2.58;1.60;;;;;;;27.13;26.67;97120.38;5034129;28;20041;-34
2021/01/19 01:38:05;;;;;;;4.80;1.52;;;;;;;27.12;26.73;97116.03;5030099;28;20033;-32
2021/01/19 01:40:31;;;;;;;3.58;1.80;;;;;;;27.11;26.58;97112.56;5029497;28;20044;-31
2021/01/19 01:42:58;;;;;;;2.75;1.25;;;;;;;27.12;26.46;97113.41;5029914;28;20033;-33
2021/01/19 01:45:25;;;;;;;3.70;1.70;;;;;;;27.12;26.18;97102.88;5029731;28;20067;-33
2021/01/19 01:47:55;;;;;;;2.05;1.40;;;;;;;27.11;26.15;97102.03;5029992;28;20460;-32
2021/01/19 01:50:21;;;;;;;2.40;1.27;;;;;;;27.12;26.16;97097.63;5022735;28;20657;-32
2021/01/19 01:52:46;;;;;;;2.25;1.40;;;;;;;27.12;26.57;97101.09;5031340;28;20033;-32
2021/01/19 01:55:12;;;;;;;2.67;1.50;;;;;;;27.12;26.54;97095.81;5030096;28;20048;-32
2021/01/19 01:57:40;;;;;;;2.20;1.58;;;;;;;27.10;26.37;97088.94;5015211;28;20037;-30
2021/01/19 02:00:07;;;;;;;2.72;1.52;;;;;;;27.11;26.37;97086.25;5031927;28;20506;-32
2021/01/19 02:02:33;;;;;;;3.03;1.38;;;;;;;27.11;26.27;97075.72;5022682;28;20049;-32
2021/01/19 02:04:58;;;;;;;1.33;1.17;;;;;;;27.11;26.17;97065.19;5029193;28;20064;-33
2021/01/19 02:07:37;;;;;;;3.22;1.40;;;;;;;27.10;26.57;97067.91;5021130;28;20114;-33
2021/01/19 02:10:07;;;;;;;1.83;1.08;;;;;;;27.10;26.39;97066.13;5032472;28;20500;-34
2021/01/19 02:12:46;;;;;;;2.85;1.27;;;;;;;27.10;26.60;97058.25;5032197;28;20624;-31
2021/01/19 02:15:12;;;;;;;1.52;1.13;;;;;;;27.09;26.49;97061.81;5031082;28;20049;-31
2021/01/19 02:17:46;;;;;;;2.83;1.60;;;;;;;27.09;26.23;97051.31;5031486;28;20040;-32
2021/01/19 02:20:13;;;;;;;1.48;1.13;;;;;;;27.09;26.57;97055.69;5025739;28;20116;-32
2021/01/19 02:23:02;;;;;;;2.08;1.17;;;;;;;27.10;26.49;97046.88;5030937;28;20371;-32
2021/01/19 02:26:05;;;;;;;1.45;0.98;;;;;;;27.08;26.64;97049.56;5026492;28;20037;-33
2021/01/19 02:28:49;;;;;;;1.90;1.35;;;;;;;27.08;26.24;97040.84;5032867;28;20060;-33
2021/01/19 02:31:42;;;;;;;1.10;1.00;;;;;;;27.07;26.18;97032.09;5025593;28;20033;-34
2021/01/19 02:34:17;;;;;;;2.42;1.30;;;;;;;27.06;26.18;97030.41;5035020;28;20033;-32
2021/01/19 02:36:50;;;;;;;3.00;1.45;;;;;;;27.05;26.23;97026.09;5022391;28;20612;-32
2021/01/19 02:39:29;;;;;;;1.83;1.20;;;;;;;27.05;26.23;97019.97;5017528;28;20049;-34
2021/01/19 02:41:55;;;;;;;1.98;1.20;;;;;;;27.03;26.61;97020.06;5006157;28;20045;-33
2021/01/19 02:44:33;;;;;;;1.65;1.20;;;;;;;27.05;26.86;97018.19;5015650;28;20482;-33
2021/01/19 02:46:59;;;;;;;1.05;0.90;;;;;;;27.04;26.59;97018.28;5024673;28;20057;-31
2021/01/19 02:49:25;;;;;;;2.00;1.10;;;;;;;27.04;26.60;97021.75;5028792;28;20037;-32
2021/01/19 02:51:52;;;;;;;1.40;1.02;;;;;;;27.03;26.23;97014.78;5022935;28;20080;-32
2021/01/19 02:54:18;;;;;;;1.77;1.00;;;;;;;27.02;26.40;97010.47;5035548;28;20075;-31
2021/01/19 02:56:52;;;;;;;1.13;0.82;;;;;;;27.01;26.75;97011.41;5023151;28;21288;-33
2021/01/19 02:59:29;;;;;;;2.45;1.13;;;;;;;27.02;26.80;97013.09;5032286;28;20108;-31
2021/01/19 03:02:09;;;;;;;2.33;0.98;;;;;;;27.01;26.56;97006.16;5020941;28;20401;-32
2021/01/19 03:04:35;;;;;;;2.47;1.30;;;;;;;27.02;26.75;97007.84;5028432;28;20045;-31
2021/01/19 03:07:03;;;;;;;2.10;1.00;;;;;;;27.02;26.74;97002.59;5016718;28;20111;-32
2021/01/19 03:09:29;;;;;;;2.28;0.95;;;;;;;27.02;26.44;97001.72;5033967;28;20047;-32
2021/01/19 03:11:55;;;;;;;1.83;1.20;;;;;;;27.03;26.92;96995.56;5032729;28;20111;-32
2021/01/19 03:14:21;;;;;;;1.90;1.02;;;;;;;27.02;26.22;96994.69;5021538;28;20048;-32
2021/01/19 03:16:47;;;;;;;1.48;1.00;;;;;;;27.02;26.40;96994.69;5018875;28;20042;-32
2021/01/19 03:19:12;;;;;;;1.75;0.95;;;;;;;27.02;26.47;96994.69;5031648;28;20801;-31
2021/01/19 03:21:39;;;;;;;1.25;0.90;;;;;;;27.03;26.70;96992.91;5020377;28;20025;-33
2021/01/19 03:24:07;;;;;;;1.00;0.90;;;;;;;27.02;26.84;96988.56;5017504;28;20042;-31
2021/01/19 03:26:32;;;;;;;1.90;1.00;;;;;;;27.02;26.09;96985.94;5020087;28;20080;-32
2021/01/19 03:28:58;;;;;;;2.58;1.08;;;;;;;27.01;26.78;96985.09;5025271;28;20041;-31
2021/01/19 03:31:24;;;;;;;2.03;1.00;;;;;;;27.00;26.75;96979.00;5027948;28;20037;-34
2021/01/19 03:33:49;;;;;;;1.10;0.75;;;;;;;27.02;26.46;96981.53;5035000;28;20053;-31
2021/01/19 03:36:15;;;;;;;1.67;0.90;;;;;;;26.99;26.70;96979.94;5020257;28;20041;-32
2021/01/19 03:38:41;;;;;;;2.13;1.05;;;;;;;27.00;26.29;96984.25;5024382;28;20037;-30
2021/01/19 03:41:06;;;;;;;2.28;0.90;;;;;;;27.00;26.25;96980.75;5032203;28;20049;-33
2021/01/19 03:43:32;;;;;;;1.58;0.98;;;;;;;27.01;26.80;96985.09;5022563;28;20069;-30
2021/01/19 03:45:58;;;;;;;1.40;1.02;;;;;;;27.00;26.11;96983.38;5032401;28;20655;-31
2021/01/19 03:48:24;;;;;;;1.60;0.85;;;;;;;27.01;26.39;96977.22;5022737;28;20157;-32
2021/01/19 03:50:49;;;;;;;1.20;0.80;;;;;;;27.02;26.21;96981.53;5027649;28;20036;-33
2021/01/19 03:53:14;;;;;;;1.13;0.82;;;;;;;27.00;26.29;96976.34;5022063;28;20449;-32
2021/01/19 03:55:40;;;;;;;1.40;0.90;;;;;;;27.01;26.75;96971.97;5021607;28;20067;-32
2021/01/19 03:58:06;;;;;;;1.77;0.98;;;;;;;27.01;26.71;96974.59;5032583;28;20040;-34
2021/01/19 04:00:32;;;;;;;1.65;1.10;;;;;;;27.00;26.64;96972.88;5025245;28;20146;-31
2021/01/19 04:02:57;;;;;;;1.65;1.17;;;;;;;26.99;26.65;96960.66;5028365;28;20049;-33
2021/01/19 04:05:23;;;;;;;0.82;0.70;;;;;;;26.98;26.26;96954.56;5026013;28;20033;-33
2021/01/19 04:07:49;;;;;;;1.27;0.80;;;;;;;26.98;26.18;96949.31;5041518;28;20041;-32
2021/01/19 04:10:14;;;;;;;1.08;0.77;;;;;;;27.00;26.69;96936.03;5031805;28;20047;-32
2021/01/19 04:12:42;;;;;;;0.95;0.82;;;;;;;26.99;26.64;96937.00;5027489;28;20036;-32
2021/01/19 04:15:08;;;;;;;1.83;0.90;;;;;;;26.97;26.70;96930.97;5040284;28;20513;-33
2021/01/19 04:17:33;;;;;;;1.13;0.70;;;;;;;26.98;26.39;96937.94;5017208;28;20568;-31
2021/01/19 04:19:59;;;;;;;1.38;0.80;;;;;;;26.97;26.73;96942.31;5008589;28;20033;-32
2021/01/19 04:22:25;;;;;;;0.77;0.60;;;;;;;26.98;26.17;96935.31;5015371;28;20037;-31
2021/01/19 04:24:51;;;;;;;1.83;0.82;;;;;;;26.96;26.27;96930.13;5009130;28;20099;-34
2021/01/19 04:27:17;;;;;;;1.00;0.90;;;;;;;26.96;26.35;96921.41;5003517;28;20042;-31
2021/01/19 04:29:43;;;;;;;1.02;0.70;;;;;;;26.96;26.58;96919.59;5015325;28;20676;-32
2021/01/19 04:32:09;;;;;;;0.50;0.50;;;;;;;26.98;26.18;96916.88;5013278;28;20026;-32
2021/01/19 04:34:34;;;;;;;0.98;0.60;;;;;;;26.97;26.11;96904.69;5010701;28;20030;-31
2021/01/19 04:37:01;;;;;;;0.75;0.60;;;;;;;26.97;26.40;96909.94;5016056;28;20522;-32
2021/01/19 04:39:26;;;;;;;0.80;0.60;;;;;;;26.98;26.60;96893.22;5002748;28;20065;-31
2021/01/19 04:41:52;;;;;;;1.63;0.80;;;;;;;27.00;26.60;96893.97;5006193;28;20696;-32
2021/01/19 04:44:17;;;;;;;1.42;0.70;;;;;;;26.97;26.55;96899.41;5012217;28;20033;-31
2021/01/19 04:46:46;;;;;;;0.82;0.75;;;;;;;26.98;26.61;96898.47;5010171;28;20046;-30
2021/01/19 04:49:12;;;;;;;1.13;0.80;;;;;;;26.98;26.16;96901.13;4990927;28;20116;-31
2021/01/19 04:51:38;;;;;;;1.55;0.80;;;;;;;26.96;26.58;96897.72;5007444;28;20041;-32
2021/01/19 04:54:07;;;;;;;0.75;0.60;;;;;;;26.96;26.37;96889.84;5001668;28;20033;-33
2021/01/19 04:56:37;;;;;;;0.85;0.70;;;;;;;26.95;26.51;96891.63;5007489;28;20116;-32
2021/01/19 04:59:03;;;;;;;1.15;0.80;;;;;;;26.95;26.08;96891.63;5021331;28;20041;-30
2021/01/19 05:01:35;;;;;;;0.95;0.60;;;;;;;26.95;26.34;96888.97;4998937;28;20046;-32
2021/01/19 05:04:17;;;;;;;1.13;0.60;;;;;;;26.94;26.35;96894.28;5012505;28;20180;-29
2021/01/19 05:06:42;;;;;;;1.23;0.70;;;;;;;26.94;26.71;96889.94;5012764;28;20045;-31
2021/01/19 05:09:08;;;;;;;0.88;0.60;;;;;;;26.97;26.55;96886.28;5011582;28;20033;-32
2021/01/19 05:11:43;;;;;;;0.77;0.55;;;;;;;26.95;26.13;96890.75;5013763;28;20129;-32
2021/01/19 05:14:09;;;;;;;0.55;0.55;;;;;;;26.94;26.37;96884.66;4993187;28;20038;-32
2021/01/19 05:16:35;;;;;;;1.13;0.65;;;;;;;26.95;26.40;96881.09;5005765;28;20034;-33
2021/01/19 05:19:02;;;;;;;1.05;0.50;;;;;;;26.96;26.60;96887.22;5016371;28;20049;-32
2021/01/19 05:21:28;;;;;;;0.77;0.60;;;;;;;26.94;26.12;96875.88;5009705;28;20053;-33
2021/01/19 05:23:55;;;;;;;1.10;0.75;;;;;;;26.93;26.35;96863.69;5005678;28;20052;-29
2021/01/19 05:26:21;;;;;;;1.08;0.85;;;;;;;26.93;26.46;96855.78;4997381;28;20068;-32
2021/01/19 05:28:53;;;;;;;2.13;0.80;;;;;;;26.94;26.59;96846.97;5015472;28;20103;-32
2021/01/19 05:31:20;;;;;;;1.00;0.70;;;;;;;26.93;26.63;96848.72;5016600;28;20118;-31
2021/01/19 05:33:54;;;;;;;0.85;0.57;;;;;;;26.93;26.35;96834.75;5013995;28;20033;-32
2021/01/19 05:36:33;;;;;;;0.43;0.43;;;;;;;26.93;26.52;96826.88;5008464;28;20060;-33
2021/01/19 05:38:59;;;;;;;0.50;0.50;;;;;;;26.94;26.04;96826.81;4992840;28;21433;-32
2021/01/19 05:41:35;;;;;;;1.40;0.70;;;;;;;26.93;26.09;96819.81;5007147;28;20081;-32
2021/01/19 05:44:34;;;;;;;0.73;0.68;;;;;;;26.94;26.14;96820.66;5016336;28;20096;-32
2021/01/19 05:47:04;;;;;;;1.02;0.50;;;;;;;26.94;26.24;96820.66;5014357;28;20124;-33
2021/01/19 05:49:42;;;;;;;0.88;0.57;;;;;;;26.94;26.10;96815.41;5001211;28;20034;-33
2021/01/19 05:52:10;;;;;;;0.80;0.63;;;;;;;26.92;26.38;96809.41;5006096;28;20454;-32
2021/01/19 05:54:38;;;;;;;0.75;0.50;;;;;;;26.89;26.67;96799.91;5007859;28;20176;-33
2021/01/19 05:57:08;;;;;;;0.65;0.63;;;;;;;26.91;26.19;96807.69;5010814;28;20022;-32
2021/01/19 05:59:35;;;;;;;0.52;0.50;;;;;;;26.92;26.64;96806.78;5005254;28;20697;-32
2021/01/19 06:02:05;;;;;;;1.50;0.65;;;;;;;26.91;26.60;96802.44;5007802;28;20092;-32
2021/01/19 06:04:40;;;;;;;1.17;0.60;;;;;;;26.92;26.33;96796.25;5006923;28;20133;-31
2021/01/19 06:07:07;;;;;;;0.50;0.50;;;;;;;26.92;26.11;96791.00;5004410;28;20072;-31
2021/01/19 06:09:33;;;;;;;1.08;0.77;;;;;;;26.92;26.63;96791.00;5008978;28;20038;-32
2021/01/19 06:11:59;;;;;;;1.05;0.70;;;;;;;26.90;26.00;96782.34;5008776;28;20022;-33
2021/01/19 06:14:28;;;;;;;1.08;0.60;;;;;;;26.89;26.07;96773.63;5013587;28;20045;-32
2021/01/19 06:17:13;;;;;;;1.50;0.70;;;;;;;26.92;26.36;96780.47;5009799;28;20155;-33
2021/01/19 06:19:40;;;;;;;1.10;0.60;;;;;;;26.91;26.18;96770.88;5016418;28;20037;-32
2021/01/19 06:22:10;;;;;;;0.70;0.55;;;;;;;26.91;26.37;96768.25;5021156;28;20064;-33
2021/01/19 06:24:45;;;;;;;0.77;0.50;;;;;;;26.91;26.73;96768.25;5017303;28;20120;-33
2021/01/19 06:27:12;;;;;;;0.95;0.80;;;;;;;26.92;26.45;96765.53;5008752;28;20065;-33
2021/01/19 06:29:43;;;;;;;1.55;0.68;;;;;;;26.92;26.33;96764.69;5009386;28;20193;-32
2021/01/19 06:32:09;;;;;;;1.47;0.60;;;;;;;26.93;26.80;96764.59;5011938;28;20503;-33
2021/01/19 06:34:38;;;;;;;0.88;0.52;;;;;;;26.86;26.75;96761.47;5011008;28;20068;-32
2021/01/19 06:37:04;;;;;;;1.05;0.60;;;;;;;26.92;26.72;96769.97;5003861;28;20038;-30
2021/01/19 06:39:32;;;;;;;0.55;0.50;;;;;;;26.93;26.42;96772.47;5006793;28;20179;-31
2021/01/19 06:42:03;;;;;;;0.50;0.43;;;;;;;26.94;26.27;96775.97;5005082;28;20061;-32
2021/01/19 06:44:37;;;;;;;0.40;0.40;;;;;;;26.91;26.75;96761.22;5006743;28;20033;-33
2021/01/19 06:47:03;;;;;;;1.15;0.50;;;;;;;26.91;26.35;96763.84;5007244;28;20034;-32
2021/01/19 06:49:33;;;;;;;0.95;0.50;;;;;;;26.93;26.30;96761.13;5022095;28;20061;-32
2021/01/19 06:52:09;;;;;;;2.00;0.57;;;;;;;26.92;26.19;96754.19;5010671;28;20686;-32
2021/01/19 06:54:46;;;;;;;0.43;0.43;;;;;;;26.93;26.48;96750.59;4989637;28;20050;-32
2021/01/19 06:57:32;;;;;;;1.52;0.50;;;;;;;26.90;26.18;96746.38;5013496;28;20067;-32
2021/01/19 07:00:11;;;;;;;1.05;0.52;;;;;;;26.92;26.28;96747.13;4996480;28;20037;-33
2021/01/19 07:02:39;;;;;;;0.98;0.65;;;;;;;26.92;26.19;96746.28;5010881;28;20048;-32
2021/01/19 07:05:09;;;;;;;2.25;0.68;;;;;;;26.92;26.74;96743.66;5006601;28;20045;-33
2021/01/19 07:07:40;;;;;;;1.23;0.60;;;;;;;26.91;26.64;96742.81;5011638;28;20125;-33
2021/01/19 07:10:09;;;;;;;3.35;0.60;;;;;;;26.90;26.03;96741.13;5006370;28;20076;-33
2021/01/19 07:13:03;;;;;;;17.45;1.05;;;;;;;26.91;26.58;96747.19;5004732;28;20490;-33
2021/01/19 07:16:04;;;;;;;6.20;1.10;;;;;;;26.89;25.88;96744.69;5003856;28;20051;-32
2021/01/19 07:19:07;;;;;;;8.27;0.73;;;;;;;26.88;26.18;96743.84;5006823;28;20033;-32
2021/01/19 07:21:58;;;;;;;8.15;1.65;;;;;;;26.84;23.83;96731.81;5003089;28;20037;-32
2021/01/19 07:24:24;;;;;;;8.32;1.90;;;;;;;26.80;22.98;96729.44;5002518;28;20117;-31
2021/01/19 07:26:50;;;;;;;7.10;1.60;;;;;;;26.78;22.37;96729.53;5005276;28;20033;-33
2021/01/19 07:29:16;;;;;;;12.00;2.00;;;;;;;26.74;22.25;96731.47;4991043;28;20049;-32
2021/01/19 07:31:41;;;;;;;5.60;1.90;;;;;;;26.72;22.12;96728.09;5006365;28;20365;-32
2021/01/19 07:34:07;;;;;;;8.35;1.90;;;;;;;26.70;22.24;96729.13;5003494;28;20392;-32
2021/01/19 07:36:33;;;;;;;4.10;1.67;;;;;;;26.67;24.25;96729.31;5003813;28;20113;-32
2021/01/19 07:38:58;;;;;;;6.40;1.60;;;;;;;26.68;25.00;96723.97;5005279;28;20050;-32
2021/01/19 07:41:33;;;;;;;10.02;2.47;;;;;;;26.69;25.43;96712.50;5003111;28;20100;-32
2021/01/19 07:43:59;;;;;;;7.97;1.90;;;;;;;26.70;25.24;96703.69;5018673;28;20034;-32
2021/01/19 07:46:27;;;;;;;10.88;2.05;;;;;;;26.70;25.25;96697.59;5018680;28;20049;-34
2021/01/19 07:49:06;;;;;;;13.02;2.00;;;;;;;26.72;25.62;96693.06;5006016;28;20157;-32
2021/01/19 07:51:47;;;;;;;10.18;1.80;;;;;;;26.73;25.52;96702.66;5007114;28;20033;-32
2021/01/19 07:54:14;;;;;;;15.27;2.22;;;;;;;26.71;25.84;96705.41;5018502;28;20806;-33
2021/01/19 07:56:40;;;;;;;6.97;2.40;;;;;;;26.73;25.87;96707.91;5028569;28;20037;-33
2021/01/19 07:59:18;;;;;;;5.75;1.70;;;;;;;26.74;25.85;96699.94;5013631;28;20710;-34
2021/01/19 08:01:59;;;;;;;6.25;1.90;;;;;;;26.75;26.34;96695.53;5011385;28;20038;-33
2021/01/19 08:04:29;;;;;;;11.48;2.20;;;;;;;26.73;26.26;96690.38;5017599;28;20514;-33
2021/01/19 08:06:55;;;;;;;7.03;2.08;;;;;;;26.76;25.97;96683.25;5029582;28;20063;-32
2021/01/19 08:09:21;;;;;;;12.80;2.00;;;;;;;26.75;26.02;96679.75;5012401;28;20415;-32
2021/01/19 08:11:47;;;;;;;7.40;1.92;;;;;;;26.77;26.44;96672.63;5009522;28;20491;-32
2021/01/19 08:14:12;;;;;;;7.10;1.90;;;;;;;26.77;25.91;96667.34;5024195;28;20049;-32
2021/01/19 08:16:40;;;;;;;8.20;1.65;;;;;;;26.79;26.42;96664.66;5005518;28;20036;-35
2021/01/19 08:19:10;;;;;;;7.88;1.70;;;;;;;26.80;25.91;96658.44;5021644;28;20045;-32
2021/01/19 08:21:37;;;;;;;6.70;1.92;;;;;;;26.80;25.89;96656.66;5023548;28;20038;-33
2021/01/19 08:24:07;;;;;;;7.18;1.83;;;;;;;26.81;26.49;96653.09;5027899;28;20103;-33
2021/01/19 08:26:32;;;;;;;3.65;1.50;;;;;;;26.83;26.03;96640.72;5021851;28;20048;-32
2021/01/19 08:28:59;;;;;;;5.40;1.52;;;;;;;26.83;26.32;96638.09;5023910;28;20045;-32
2021/01/19 08:31:27;;;;;;;7.28;1.80;;;;;;;26.85;26.46;96627.50;5016590;28;20080;-32
2021/01/19 08:33:53;;;;;;;4.07;1.70;;;;;;;26.85;26.43;96625.69;5020512;28;20060;-32
2021/01/19 08:36:19;;;;;;;2.90;1.40;;;;;;;26.86;26.59;96623.91;5002768;28;20048;-32
2021/01/19 08:38:47;;;;;;;4.55;1.95;;;;;;;26.88;26.06;96629.91;5015564;28;20042;-31
2021/01/19 08:41:17;;;;;;;4.63;1.75;;;;;;;26.86;26.58;96630.00;5006378;28;20048;-32
2021/01/19 08:44:00;;;;;;;4.45;1.40;;;;;;;26.86;26.17;96630.00;5008135;28;20038;-34
2021/01/19 08:46:26;;;;;;;4.88;1.58;;;;;;;26.89;26.17;96639.53;5016115;28;20037;-32
2021/01/19 08:48:52;;;;;;;6.88;1.38;;;;;;;26.90;26.07;96641.19;5010553;28;20125;-34
2021/01/19 08:51:21;;;;;;;3.47;1.38;;;;;;;26.90;26.03;96633.31;5007117;28;20537;-32
2021/01/19 08:53:47;;;;;;;4.68;1.73;;;;;;;26.91;26.04;96631.50;5008294;28;20037;-32
2021/01/19 08:56:17;;;;;;;5.80;1.80;;;;;;;26.93;26.11;96629.66;5002958;28;20037;-33
2021/01/19 08:58:43;;;;;;;3.97;1.60;;;;;;;26.93;26.15;96625.22;5010151;28;20436;-32
2021/01/19 09:01:09;;;;;;;5.57;1.75;;;;;;;26.94;26.09;96628.72;5003459;28;20052;-33
2021/01/19 09:03:34;;;;;;;5.03;1.73;;;;;;;26.95;26.41;96630.41;5003113;28;20049;-33
2021/01/19 09:06:01;;;;;;;3.85;1.63;;;;;;;26.95;26.12;96628.66;5008193;28;20666;-33
2021/01/19 09:08:28;;;;;;;4.85;1.75;;;;;;;26.96;26.40;96630.34;5005993;28;20072;-30
2021/01/19 09:11:01;;;;;;;3.90;1.40;;;;;;;26.96;26.08;96613.72;5005052;28;20427;-33
2021/01/19 09:13:26;;;;;;;5.25;1.50;;;;;;;26.96;26.34;96630.34;5004896;28;20060;-35
2021/01/19 09:15:52;;;;;;;6.22;1.55;;;;;;;26.97;26.33;96637.28;5001679;28;20045;-33
2021/01/19 09:18:18;;;;;;;4.00;1.33;;;;;;;26.99;26.45;96634.56;5008720;28;20040;-32
2021/01/19 09:20:44;;;;;;;4.97;1.50;;;;;;;27.01;26.71;96630.06;5004647;28;20172;-34
2021/01/19 09:23:15;;;;;;;2.72;1.20;;;;;;;26.99;26.33;96613.53;5010735;28;20041;-32
2021/01/19 09:25:43;;;;;;;4.32;1.50;;;;;;;27.01;26.71;96611.66;5007567;28;20026;-32
2021/01/19 09:28:10;;;;;;;2.25;1.20;;;;;;;27.02;26.11;96602.81;5006093;28;20415;-32
2021/01/19 09:30:36;;;;;;;4.07;1.40;;;;;;;27.01;26.33;96601.13;4999658;28;21187;-33
2021/01/19 09:33:09;;;;;;;2.78;1.23;;;;;;;27.02;26.33;96591.44;5006704;28;20054;-32
2021/01/19 09:35:35;;;;;;;3.72;1.40;;;;;;;27.02;26.36;96587.03;5008924;28;20042;-33
2021/01/19 09:38:01;;;;;;;7.18;1.35;;;;;;;27.05;26.23;96586.00;5002486;28;20263;-32
2021/01/19 09:40:30;;;;;;;2.67;1.40;;;;;;;27.03;26.11;96586.09;5006579;28;20088;-29
2021/01/19 09:42:56;;;;;;;3.00;1.58;;;;;;;27.03;26.66;96583.47;5010061;28;20041;-33
2021/01/19 09:45:21;;;;;;;3.65;1.30;;;;;;;27.04;26.02;96569.38;5000061;28;20045;-31
2021/01/19 09:47:47;;;;;;;4.03;1.20;;;;;;;27.05;26.29;96565.81;5008355;28;20064;-33
2021/01/19 09:50:13;;;;;;;1.75;1.10;;;;;;;27.04;26.46;96558.84;5007065;28;20038;-33
2021/01/19 09:52:44;;;;;;;2.45;1.23;;;;;;;27.05;26.18;96563.19;5009815;28;20041;-33
2021/01/19 09:55:14;;;;;;;2.53;1.10;;;;;;;27.04;26.86;96561.47;5007795;28;20034;-33
2021/01/19 09:57:39;;;;;;;1.95;1.23;;;;;;;27.04;26.51;96558.84;5006485;28;20045;-32
2021/01/19 10:00:07;;;;;;;1.38;0.90;;;;;;;27.04;26.69;96550.97;5008733;28;20061;-31
2021/01/19 10:02:33;;;;;;;2.83;1.30;;;;;;;27.04;26.51;96548.34;5000540;28;20050;-33
2021/01/19 10:05:02;;;;;;;3.70;1.40;;;;;;;27.05;26.65;96542.16;5019972;28;20049;-33
2021/01/19 10:07:29;;;;;;;2.67;1.10;;;;;;;27.05;26.62;96536.91;5009013;28;20037;-32
2021/01/19 10:10:11;;;;;;;16.23;1.65;;;;;;;27.02;25.96;96528.34;5004371;28;20042;-34
2021/01/19 10:12:37;;;;;;;10.73;1.48;;;;;;;27.02;26.65;96521.28;5016349;28;20048;-33
2021/01/19 10:15:04;;;;;;;9.65;3.08;;;;;;;26.77;18.60;96517.53;5003481;28;20080;-32
2021/01/19 10:17:34;;;;;;;8.18;4.18;;;;;;;26.14;15.52;96506.38;5008934;28;20060;-35
2021/01/19 10:20:08;;;;;;;5.63;3.83;;;;;;;25.45;15.42;96510.25;5008031;28;20033;-35
2021/01/19 10:22:39;;;;;;;11.75;3.63;;;;;;;24.90;15.96;96499.25;5019034;28;20037;-32
2021/01/19 10:25:07;;;;;;;5.55;3.25;;;;;;;24.60;18.64;96498.13;5000088;28;20053;-30
2021/01/19 10:27:37;;;;;;;7.30;3.00;;;;;;;24.44;19.81;96497.28;5002731;28;20037;-30
2021/01/19 10:30:05;;;;;;;10.00;2.90;;;;;;;24.38;20.61;96496.66;5004380;28;20464;-30
2021/01/19 10:32:44;;;;;;;3.92;2.40;;;;;;;24.45;21.25;96494.56;5016270;28;20044;-31
2021/01/19 10:35:13;;;;;;;5.43;2.50;;;;;;;24.57;21.75;96492.22;4979320;28;20395;-31
2021/01/19 10:37:56;;;;;;;5.45;2.53;;;;;;;24.76;22.30;96486.84;5010722;28;20042;-29
2021/01/19 10:40:22;;;;;;;3.95;2.00;;;;;;;24.92;22.45;96479.03;5006545;28;20048;-30
2021/01/19 10:42:48;;;;;;;6.07;2.00;;;;;;;25.19;22.38;96486.31;5008801;28;20033;-30
2021/01/19 10:45:25;;;;;;;10.38;1.85;;;;;;;25.43;22.60;96475.34;5006367;28;20095;-33
2021/01/19 10:47:51;;;;;;;6.35;2.08;;;;;;;25.66;22.50;96462.75;5000962;28;20033;-31
2021/01/19 10:50:21;;;;;;;3.75;1.92;;;;;;;25.86;22.61;96460.75;5001875;28;20045;-31
2021/01/19 10:52:53;;;;;;;4.70;1.73;;;;;;;26.07;22.74;96453.38;5003135;28;20558;-31
2021/01/19 10:55:19;;;;;;;3.63;1.80;;;;;;;26.21;22.33;96448.13;5014175;28;20549;-31
2021/01/19 10:57:46;;;;;;;4.50;1.52;;;;;;;26.38;22.51;96455.97;5009086;28;20558;-32
2021/01/19 11:00:14;;;;;;;2.80;1.65;;;;;;;26.50;22.46;96443.88;5012365;28;20117;-33
2021/01/19 11:02:39;;;;;;;5.70;1.63;;;;;;;26.64;22.44;96440.38;5017329;28;20581;-31
2021/01/19 11:05:06;;;;;;;2.80;1.35;;;;;;;26.76;22.82;96434.34;4997746;28;20080;-31
2021/01/19 11:07:31;;;;;;;2.88;1.52;;;;;;;26.87;22.43;96424.00;4999109;28;20056;-30
2021/01/19 11:09:57;;;;;;;1.83;1.35;;;;;;;26.98;22.84;96412.00;4993390;28;20068;-31
2021/01/19 11:12:23;;;;;;;3.63;1.52;;;;;;;27.06;22.20;96404.44;5001710;28;20042;-31
2021/01/19 11:14:49;;;;;;;2.40;1.48;;;;;;;27.15;22.63;96404.81;5006028;28;20038;-34
2021/01/19 11:17:14;;;;;;;4.63;1.70;;;;;;;27.24;22.34;96397.13;5022863;28;20054;-32
2021/01/19 11:19:40;;;;;;;3.50;1.70;;;;;;;27.31;22.46;96387.06;5021553;28;20045;-30
2021/01/19 11:22:08;;;;;;;2.85;1.23;;;;;;;27.37;22.60;96384.03;5025912;28;20037;-33
2021/01/19 11:24:34;;;;;;;2.88;1.35;;;;;;;27.45;22.87;96399.31;5024153;28;20064;-31
2021/01/19 11:27:00;;;;;;;2.58;1.58;;;;;;;27.51;22.77;96393.63;5028246;28;20029;-31
2021/01/19 11:29:26;;;;;;;5.43;1.33;;;;;;;27.56;22.52;96393.31;5025277;28;20083;-30
2021/01/19 11:31:51;;;;;;;5.85;1.42;;;;;;;27.60;22.95;96400.06;5004178;28;20061;-30
2021/01/19 11:34:18;;;;;;;4.93;1.48;;;;;;;27.63;22.79;96399.91;5000583;28;20422;-32
2021/01/19 11:36:44;;;;;;;6.75;1.15;;;;;;;27.68;23.04;96393.50;4999213;28;20062;-31
2021/01/19 11:39:10;;;;;;;2.45;1.00;;;;;;;27.70;23.15;96395.06;5000618;28;20071;-32
2021/01/19 11:41:36;;;;;;;2.42;1.05;;;;;;;27.74;22.92;96390.44;5004072;28;20063;-30